sensor_id;sensor_type;location;lat;lon;timestamp;temperature;humidity
6206;DHT22;3136;48.788;9.772;2022-09-17T00:00:17;9.80;99.90
6206;DHT22;3136;48.788;9.772;2022-09-17T00:02:42;9.90;99.90
6206;DHT22;3136;48.788;9.772;2022-09-17T00:05:10;9.80;1.00
6206;DHT22;3136;48.788;9.772;2022-09-17T00:07:36;9.80;99.90
6206;DHT22;3136;48.788;9.772;2022-09-17T00:10:02;9.80;1.00
6206;DHT22;3136;48.788;9.772;2022-09-17T00:12:28;9.80;1.00
6206;DHT22;3136;48.788;9.772;2022-09-17T00:14:53;9.70;1.00
6206;DHT22;3136;48.788;9.772;2022-09-17T00:17:19;9.70;1.00
6206;DHT22;3136;48.788;9.772;2022-09-17T00:19:45;9.70;1.00
6206;DHT22;3136;48.788;9.772;2022-09-17T00:22:10;9.70;1.00
6206;DHT22;3136;48.788;9.772;2022-09-17T00:24:36;9.70;1.00
6206;DHT22;3136;48.788;9.772;2022-09-17T00:27:01;9.70;99.90
6206;DHT22;3136;48.788;9.772;2022-09-17T00:29:27;9.70;99.90
6206;DHT22;3136;48.788;9.772;2022-09-17T00:31:52;9.70;1.00
6206;DHT22;3136;48.788;9.772;2022-09-17T00:34:18;9.70;1.00
6206;DHT22;3136;48.788;9.772;2022-09-17T00:36:43;9.60;99.90
6206;DHT22;3136;48.788;9.772;2022-09-17T00:39:11;9.60;99.90
6206;DHT22;3136;48.788;9.772;2022-09-17T00:41:40;9.60;99.90
6206;DHT22;3136;48.788;9.772;2022-09-17T00:44:44;9.50;1.00
6206;DHT22;3136;48.788;9.772;2022-09-17T00:50:03;9.40;1.00
6206;DHT22;3136;48.788;9.772;2022-09-17T00:52:36;9.40;99.90
6206;DHT22;3136;48.788;9.772;2022-09-17T00:55:13;9.30;1.00
6206;DHT22;3136;48.788;9.772;2022-09-17T00:57:40;9.30;1.00
6206;DHT22;3136;48.788;9.772;2022-09-17T01:00:06;9.20;99.90
6206;DHT22;3136;48.788;9.772;2022-09-17T01:02:33;9.10;1.00
6206;DHT22;3136;48.788;9.772;2022-09-17T01:04:59;9.10;1.00
6206;DHT22;3136;48.788;9.772;2022-09-17T01:07:38;9.10;99.90
6206;DHT22;3136;48.788;9.772;2022-09-17T01:10:30;9.00;99.90
6206;DHT22;3136;48.788;9.772;2022-09-17T01:18:19;8.90;48.80
6206;DHT22;3136;48.788;9.772;2022-09-17T01:32:32;8.90;1.00
6206;DHT22;3136;48.788;9.772;2022-09-17T01:40:23;9.00;1.00
6206;DHT22;3136;48.788;9.772;2022-09-17T01:42:56;9.00;25.70
6206;DHT22;3136;48.788;9.772;2022-09-17T01:45:43;8.90;1.00
6206;DHT22;3136;48.788;9.772;2022-09-17T01:48:18;8.80;1.00
6206;DHT22;3136;48.788;9.772;2022-09-17T01:50:55;8.80;99.90
6206;DHT22;3136;48.788;9.772;2022-09-17T01:53:25;8.80;18.30
6206;DHT22;3136;48.788;9.772;2022-09-17T01:55:55;8.90;1.00
6206;DHT22;3136;48.788;9.772;2022-09-17T01:58:28;8.90;85.40
6206;DHT22;3136;48.788;9.772;2022-09-17T02:01:01;9.00;8.50
6206;DHT22;3136;48.788;9.772;2022-09-17T02:03:41;9.00;1.00
6206;DHT22;3136;48.788;9.772;2022-09-17T02:06:20;9.10;1.00
6206;DHT22;3136;48.788;9.772;2022-09-17T02:08:51;9.10;1.00
6206;DHT22;3136;48.788;9.772;2022-09-17T02:11:18;9.20;1.00
6206;DHT22;3136;48.788;9.772;2022-09-17T02:13:56;9.20;99.90
6206;DHT22;3136;48.788;9.772;2022-09-17T02:16:32;9.30;1.00
6206;DHT22;3136;48.788;9.772;2022-09-17T02:19:11;9.30;99.90
6206;DHT22;3136;48.788;9.772;2022-09-17T02:21:45;9.30;49.50
6206;DHT22;3136;48.788;9.772;2022-09-17T02:24:34;9.40;99.90
6206;DHT22;3136;48.788;9.772;2022-09-17T02:27:09;9.40;1.00
6206;DHT22;3136;48.788;9.772;2022-09-17T02:29:41;9.40;1.00
6206;DHT22;3136;48.788;9.772;2022-09-17T02:32:08;10.60;1.00
6206;DHT22;3136;48.788;9.772;2022-09-17T02:34:34;9.50;99.90
6206;DHT22;3136;48.788;9.772;2022-09-17T02:37:00;9.50;99.90
6206;DHT22;3136;48.788;9.772;2022-09-17T02:39:27;8.60;99.90
6206;DHT22;3136;48.788;9.772;2022-09-17T02:56:01;9.70;1.00
6206;DHT22;3136;48.788;9.772;2022-09-17T02:58:42;9.70;1.00
6206;DHT22;3136;48.788;9.772;2022-09-17T03:01:17;9.70;1.00
6206;DHT22;3136;48.788;9.772;2022-09-17T03:03:45;9.70;50.70
6206;DHT22;3136;48.788;9.772;2022-09-17T03:06:15;9.70;1.00
6206;DHT22;3136;48.788;9.772;2022-09-17T03:08:41;9.80;1.00
6206;DHT22;3136;48.788;9.772;2022-09-17T03:11:07;9.70;1.00
6206;DHT22;3136;48.788;9.772;2022-09-17T03:13:35;9.80;1.00
6206;DHT22;3136;48.788;9.772;2022-09-17T03:16:05;9.80;1.00
6206;DHT22;3136;48.788;9.772;2022-09-17T03:18:31;9.80;1.00
6206;DHT22;3136;48.788;9.772;2022-09-17T03:20:56;9.80;1.00
6206;DHT22;3136;48.788;9.772;2022-09-17T03:23:22;9.80;1.00
6206;DHT22;3136;48.788;9.772;2022-09-17T03:25:47;9.80;1.00
6206;DHT22;3136;48.788;9.772;2022-09-17T03:28:16;9.80;1.00
6206;DHT22;3136;48.788;9.772;2022-09-17T03:30:43;9.80;1.00
6206;DHT22;3136;48.788;9.772;2022-09-17T03:33:08;9.90;1.00
6206;DHT22;3136;48.788;9.772;2022-09-17T03:35:34;9.80;1.00
6206;DHT22;3136;48.788;9.772;2022-09-17T03:37:59;9.80;1.00
6206;DHT22;3136;48.788;9.772;2022-09-17T03:40:25;9.80;1.00
6206;DHT22;3136;48.788;9.772;2022-09-17T03:42:51;9.80;1.00
6206;DHT22;3136;48.788;9.772;2022-09-17T03:45:16;9.80;1.00
6206;DHT22;3136;48.788;9.772;2022-09-17T03:47:42;9.80;1.00
6206;DHT22;3136;48.788;9.772;2022-09-17T03:50:07;9.70;1.00
6206;DHT22;3136;48.788;9.772;2022-09-17T03:52:33;9.80;1.00
6206;DHT22;3136;48.788;9.772;2022-09-17T03:54:59;9.80;1.00
6206;DHT22;3136;48.788;9.772;2022-09-17T03:57:25;9.80;1.00
6206;DHT22;3136;48.788;9.772;2022-09-17T03:59:50;9.80;1.00
6206;DHT22;3136;48.788;9.772;2022-09-17T04:02:16;9.80;1.00
6206;DHT22;3136;48.788;9.772;2022-09-17T04:04:42;9.80;1.00
6206;DHT22;3136;48.788;9.772;2022-09-17T04:07:08;9.90;99.90
6206;DHT22;3136;48.788;9.772;2022-09-17T04:09:34;9.80;99.90
6206;DHT22;3136;48.788;9.772;2022-09-17T04:11:59;9.80;99.90
6206;DHT22;3136;48.788;9.772;2022-09-17T04:14:25;9.80;99.90
6206;DHT22;3136;48.788;9.772;2022-09-17T04:16:51;9.80;99.90
6206;DHT22;3136;48.788;9.772;2022-09-17T04:19:16;9.80;99.90
6206;DHT22;3136;48.788;9.772;2022-09-17T04:21:42;9.80;99.90
6206;DHT22;3136;48.788;9.772;2022-09-17T04:24:07;9.80;99.90
6206;DHT22;3136;48.788;9.772;2022-09-17T04:26:33;9.70;99.90
6206;DHT22;3136;48.788;9.772;2022-09-17T04:28:59;9.70;99.90
6206;DHT22;3136;48.788;9.772;2022-09-17T04:31:25;9.80;99.90
6206;DHT22;3136;48.788;9.772;2022-09-17T04:33:52;9.80;99.90
6206;DHT22;3136;48.788;9.772;2022-09-17T04:36:17;9.80;99.90
6206;DHT22;3136;48.788;9.772;2022-09-17T04:38:43;9.70;99.90
6206;DHT22;3136;48.788;9.772;2022-09-17T04:41:11;9.70;99.90
6206;DHT22;3136;48.788;9.772;2022-09-17T04:43:37;9.70;99.90
6206;DHT22;3136;48.788;9.772;2022-09-17T04:46:02;9.70;99.90
6206;DHT22;3136;48.788;9.772;2022-09-17T04:48:28;9.70;99.90
6206;DHT22;3136;48.788;9.772;2022-09-17T04:50:54;9.80;99.90
6206;DHT22;3136;48.788;9.772;2022-09-17T04:53:20;9.80;99.90
6206;DHT22;3136;48.788;9.772;2022-09-17T04:55:45;9.80;99.90
6206;DHT22;3136;48.788;9.772;2022-09-17T04:58:11;9.80;99.90
6206;DHT22;3136;48.788;9.772;2022-09-17T05:00:36;9.80;99.90
6206;DHT22;3136;48.788;9.772;2022-09-17T05:03:02;9.80;99.90
6206;DHT22;3136;48.788;9.772;2022-09-17T05:05:28;9.70;99.90
6206;DHT22;3136;48.788;9.772;2022-09-17T05:07:54;9.70;99.90
6206;DHT22;3136;48.788;9.772;2022-09-17T05:10:21;9.70;99.90
6206;DHT22;3136;48.788;9.772;2022-09-17T05:12:52;9.70;99.90
6206;DHT22;3136;48.788;9.772;2022-09-17T05:15:18;9.80;99.90
6206;DHT22;3136;48.788;9.772;2022-09-17T05:17:44;9.80;99.90
6206;DHT22;3136;48.788;9.772;2022-09-17T05:20:10;9.80;99.90
6206;DHT22;3136;48.788;9.772;2022-09-17T05:22:43;9.80;99.90
6206;DHT22;3136;48.788;9.772;2022-09-17T05:25:09;9.80;99.90
6206;DHT22;3136;48.788;9.772;2022-09-17T05:27:35;9.80;99.90
6206;DHT22;3136;48.788;9.772;2022-09-17T05:30:01;9.70;96.70
6206;DHT22;3136;48.788;9.772;2022-09-17T05:32:27;9.80;99.90
6206;DHT22;3136;48.788;9.772;2022-09-17T05:34:52;9.70;99.30
6206;DHT22;3136;48.788;9.772;2022-09-17T05:37:18;11.00;99.90
6206;DHT22;3136;48.788;9.772;2022-09-17T05:39:43;9.70;99.90
6206;DHT22;3136;48.788;9.772;2022-09-17T05:42:09;9.70;99.90
6206;DHT22;3136;48.788;9.772;2022-09-17T05:44:35;9.70;99.90
6206;DHT22;3136;48.788;9.772;2022-09-17T05:47:00;9.70;99.90
6206;DHT22;3136;48.788;9.772;2022-09-17T05:49:26;9.70;99.90
6206;DHT22;3136;48.788;9.772;2022-09-17T05:51:51;9.70;99.90
6206;DHT22;3136;48.788;9.772;2022-09-17T05:54:17;9.70;99.90
6206;DHT22;3136;48.788;9.772;2022-09-17T05:56:42;9.70;86.40
6206;DHT22;3136;48.788;9.772;2022-09-17T05:59:08;9.70;99.90
6206;DHT22;3136;48.788;9.772;2022-09-17T06:01:34;9.70;99.90
6206;DHT22;3136;48.788;9.772;2022-09-17T06:03:59;9.70;95.70
6206;DHT22;3136;48.788;9.772;2022-09-17T06:06:27;9.70;99.90
6206;DHT22;3136;48.788;9.772;2022-09-17T06:08:58;9.80;94.80
6206;DHT22;3136;48.788;9.772;2022-09-17T06:11:24;9.80;81.50
6206;DHT22;3136;48.788;9.772;2022-09-17T06:13:54;9.80;88.90
6206;DHT22;3136;48.788;9.772;2022-09-17T06:16:21;9.80;99.90
6206;DHT22;3136;48.788;9.772;2022-09-17T06:18:47;9.80;94.20
6206;DHT22;3136;48.788;9.772;2022-09-17T06:21:14;9.80;99.90
6206;DHT22;3136;48.788;9.772;2022-09-17T06:23:40;9.80;99.90
6206;DHT22;3136;48.788;9.772;2022-09-17T06:26:08;9.80;99.90
6206;DHT22;3136;48.788;9.772;2022-09-17T06:28:34;9.80;99.90
6206;DHT22;3136;48.788;9.772;2022-09-17T06:31:03;9.80;99.90
6206;DHT22;3136;48.788;9.772;2022-09-17T06:33:30;9.90;94.90
6206;DHT22;3136;48.788;9.772;2022-09-17T06:36:07;9.90;99.90
6206;DHT22;3136;48.788;9.772;2022-09-17T06:38:35;9.90;99.90
6206;DHT22;3136;48.788;9.772;2022-09-17T06:41:01;9.90;93.30
6206;DHT22;3136;48.788;9.772;2022-09-17T06:43:27;9.90;90.10
6206;DHT22;3136;48.788;9.772;2022-09-17T06:45:53;9.90;85.60
6206;DHT22;3136;48.788;9.772;2022-09-17T06:48:20;9.90;94.30
6206;DHT22;3136;48.788;9.772;2022-09-17T06:50:46;10.00;96.30
6206;DHT22;3136;48.788;9.772;2022-09-17T06:53:12;9.90;96.80
6206;DHT22;3136;48.788;9.772;2022-09-17T06:55:37;9.90;99.90
6206;DHT22;3136;48.788;9.772;2022-09-17T06:58:03;9.90;99.90
6206;DHT22;3136;48.788;9.772;2022-09-17T07:00:28;9.90;99.90
6206;DHT22;3136;48.788;9.772;2022-09-17T07:02:58;9.80;99.90
6206;DHT22;3136;48.788;9.772;2022-09-17T07:05:25;9.90;99.90
6206;DHT22;3136;48.788;9.772;2022-09-17T07:07:51;9.90;83.40
6206;DHT22;3136;48.788;9.772;2022-09-17T07:10:17;9.90;99.90
6206;DHT22;3136;48.788;9.772;2022-09-17T07:12:43;9.90;93.60
6206;DHT22;3136;48.788;9.772;2022-09-17T07:15:09;9.90;76.90
6206;DHT22;3136;48.788;9.772;2022-09-17T07:17:40;9.90;74.60
6206;DHT22;3136;48.788;9.772;2022-09-17T07:20:09;9.80;93.50
6206;DHT22;3136;48.788;9.772;2022-09-17T07:22:34;9.80;91.40
6206;DHT22;3136;48.788;9.772;2022-09-17T07:25:00;9.80;99.90
6206;DHT22;3136;48.788;9.772;2022-09-17T07:27:27;9.70;99.90
6206;DHT22;3136;48.788;9.772;2022-09-17T07:29:53;9.70;99.90
6206;DHT22;3136;48.788;9.772;2022-09-17T07:32:19;9.80;99.90
6206;DHT22;3136;48.788;9.772;2022-09-17T07:34:45;9.80;99.90
6206;DHT22;3136;48.788;9.772;2022-09-17T07:37:10;9.70;99.90
6206;DHT22;3136;48.788;9.772;2022-09-17T07:39:36;9.70;99.90
6206;DHT22;3136;48.788;9.772;2022-09-17T07:42:01;9.70;99.90
6206;DHT22;3136;48.788;9.772;2022-09-17T07:44:29;9.70;99.90
6206;DHT22;3136;48.788;9.772;2022-09-17T07:46:54;9.70;99.90
6206;DHT22;3136;48.788;9.772;2022-09-17T07:49:20;9.60;99.90
6206;DHT22;3136;48.788;9.772;2022-09-17T07:51:45;9.60;99.90
6206;DHT22;3136;48.788;9.772;2022-09-17T07:54:11;9.60;99.90
6206;DHT22;3136;48.788;9.772;2022-09-17T07:56:36;9.70;99.90
6206;DHT22;3136;48.788;9.772;2022-09-17T07:59:02;9.70;99.90
6206;DHT22;3136;48.788;9.772;2022-09-17T08:01:28;9.70;99.90
6206;DHT22;3136;48.788;9.772;2022-09-17T08:03:55;9.80;1.00
6206;DHT22;3136;48.788;9.772;2022-09-17T08:06:23;9.90;99.90
6206;DHT22;3136;48.788;9.772;2022-09-17T08:08:53;9.90;99.90
6206;DHT22;3136;48.788;9.772;2022-09-17T08:11:21;9.90;99.90
6206;DHT22;3136;48.788;9.772;2022-09-17T08:13:48;9.90;99.90
6206;DHT22;3136;48.788;9.772;2022-09-17T08:16:14;9.90;99.90
6206;DHT22;3136;48.788;9.772;2022-09-17T08:18:41;9.90;99.90
6206;DHT22;3136;48.788;9.772;2022-09-17T08:21:10;9.90;99.90
6206;DHT22;3136;48.788;9.772;2022-09-17T08:23:37;9.80;99.90
6206;DHT22;3136;48.788;9.772;2022-09-17T08:26:05;9.70;99.90
6206;DHT22;3136;48.788;9.772;2022-09-17T08:28:33;9.70;99.90
6206;DHT22;3136;48.788;9.772;2022-09-17T08:31:01;9.70;99.90
6206;DHT22;3136;48.788;9.772;2022-09-17T08:33:36;9.60;1.00
6206;DHT22;3136;48.788;9.772;2022-09-17T08:36:03;9.60;1.00
6206;DHT22;3136;48.788;9.772;2022-09-17T08:38:30;9.60;1.00
6206;DHT22;3136;48.788;9.772;2022-09-17T08:43:39;9.60;1.00
6206;DHT22;3136;48.788;9.772;2022-09-17T08:46:09;9.60;1.00
6206;DHT22;3136;48.788;9.772;2022-09-17T08:48:55;9.60;1.00
6206;DHT22;3136;48.788;9.772;2022-09-17T08:51:27;9.60;90.30
6206;DHT22;3136;48.788;9.772;2022-09-17T09:00:08;9.60;1.00
6206;DHT22;3136;48.788;9.772;2022-09-17T09:02:54;9.70;1.00
6206;DHT22;3136;48.788;9.772;2022-09-17T09:05:42;9.70;1.00
6206;DHT22;3136;48.788;9.772;2022-09-17T09:10:53;9.70;1.00
6206;DHT22;3136;48.788;9.772;2022-09-17T09:13:22;9.70;1.00
6206;DHT22;3136;48.788;9.772;2022-09-17T09:16:00;8.40;1.00
6206;DHT22;3136;48.788;9.772;2022-09-17T09:18:34;9.80;1.00
6206;DHT22;3136;48.788;9.772;2022-09-17T09:29:41;9.80;1.00
6206;DHT22;3136;48.788;9.772;2022-09-17T09:32:22;9.80;1.00
6206;DHT22;3136;48.788;9.772;2022-09-17T09:34:53;9.80;1.00
6206;DHT22;3136;48.788;9.772;2022-09-17T09:37:26;9.90;99.90
6206;DHT22;3136;48.788;9.772;2022-09-17T09:39:54;10.00;99.90
6206;DHT22;3136;48.788;9.772;2022-09-17T09:42:32;10.10;99.90
6206;DHT22;3136;48.788;9.772;2022-09-17T09:45:11;10.10;99.90
6206;DHT22;3136;48.788;9.772;2022-09-17T09:47:56;10.30;99.90
6206;DHT22;3136;48.788;9.772;2022-09-17T09:50:37;10.40;99.90
6206;DHT22;3136;48.788;9.772;2022-09-17T09:53:18;10.40;99.90
6206;DHT22;3136;48.788;9.772;2022-09-17T09:58:36;10.70;99.90
6206;DHT22;3136;48.788;9.772;2022-09-17T10:01:12;11.00;99.90
6206;DHT22;3136;48.788;9.772;2022-09-17T10:03:40;11.50;99.90
6206;DHT22;3136;48.788;9.772;2022-09-17T10:06:09;12.10;98.30
6206;DHT22;3136;48.788;9.772;2022-09-17T10:08:38;12.40;50.60
6206;DHT22;3136;48.788;9.772;2022-09-17T10:11:25;12.50;20.20
6206;DHT22;3136;48.788;9.772;2022-09-17T10:13:51;12.50;9.70
6206;DHT22;3136;48.788;9.772;2022-09-17T10:18:49;12.20;7.20
6206;DHT22;3136;48.788;9.772;2022-09-17T10:21:30;12.10;11.20
6206;DHT22;3136;48.788;9.772;2022-09-17T10:23:57;12.00;7.60
6206;DHT22;3136;48.788;9.772;2022-09-17T10:26:32;11.80;9.20
6206;DHT22;3136;48.788;9.772;2022-09-17T10:29:00;11.70;9.70
6206;DHT22;3136;48.788;9.772;2022-09-17T10:31:46;11.60;14.70
6206;DHT22;3136;48.788;9.772;2022-09-17T10:34:32;11.40;27.60
6206;DHT22;3136;48.788;9.772;2022-09-17T10:36:58;11.20;57.20
6206;DHT22;3136;48.788;9.772;2022-09-17T10:42:03;11.20;86.40
6206;DHT22;3136;48.788;9.772;2022-09-17T10:44:32;11.30;55.70
6206;DHT22;3136;48.788;9.772;2022-09-17T10:47:21;11.40;40.80
6206;DHT22;3136;48.788;9.772;2022-09-17T10:49:56;11.40;28.50
6206;DHT22;3136;48.788;9.772;2022-09-17T10:52:35;11.40;33.40
6206;DHT22;3136;48.788;9.772;2022-09-17T10:55:24;11.60;28.60
6206;DHT22;3136;48.788;9.772;2022-09-17T11:00:43;14.90;1.00
6206;DHT22;3136;48.788;9.772;2022-09-17T11:26:14;13.50;1.00
6206;DHT22;3136;48.788;9.772;2022-09-17T11:34:21;12.80;1.00
6206;DHT22;3136;48.788;9.772;2022-09-17T11:39:59;12.10;10.40
6206;DHT22;3136;48.788;9.772;2022-09-17T11:42:46;11.80;24.40
6206;DHT22;3136;48.788;9.772;2022-09-17T11:45:24;11.60;99.90
6206;DHT22;3136;48.788;9.772;2022-09-17T11:48:04;11.40;99.90
6206;DHT22;3136;48.788;9.772;2022-09-17T11:50:47;11.30;99.90
6206;DHT22;3136;48.788;9.772;2022-09-17T11:56:01;11.40;99.90
6206;DHT22;3136;48.788;9.772;2022-09-17T11:58:43;11.40;99.90
6206;DHT22;3136;48.788;9.772;2022-09-17T12:01:15;11.20;99.90
6206;DHT22;3136;48.788;9.772;2022-09-17T12:03:54;11.00;99.90
6206;DHT22;3136;48.788;9.772;2022-09-17T12:09:13;10.00;99.90
6206;DHT22;3136;48.788;9.772;2022-09-17T12:14:20;9.40;99.90
6206;DHT22;3136;48.788;9.772;2022-09-17T12:16:50;9.20;99.90
6206;DHT22;3136;48.788;9.772;2022-09-17T12:19:24;9.10;1.00
6206;DHT22;3136;48.788;9.772;2022-09-17T12:21:59;9.00;1.00
6206;DHT22;3136;48.788;9.772;2022-09-17T12:24:27;9.00;1.00
6206;DHT22;3136;48.788;9.772;2022-09-17T12:29:45;9.30;1.00
6206;DHT22;3136;48.788;9.772;2022-09-17T12:38:29;10.40;30.20
6206;DHT22;3136;48.788;9.772;2022-09-17T12:41:20;10.80;24.40
6206;DHT22;3136;48.788;9.772;2022-09-17T12:44:09;10.80;99.90
6206;DHT22;3136;48.788;9.772;2022-09-17T12:57:35;12.50;99.90
6206;DHT22;3136;48.788;9.772;2022-09-17T13:00:12;12.10;31.00
6206;DHT22;3136;48.788;9.772;2022-09-17T13:02:54;11.60;54.50
6206;DHT22;3136;48.788;9.772;2022-09-17T13:08:12;11.50;99.90
6206;DHT22;3136;48.788;9.772;2022-09-17T13:14:03;11.90;99.90
6206;DHT22;3136;48.788;9.772;2022-09-17T13:24:21;11.10;99.90
6206;DHT22;3136;48.788;9.772;2022-09-17T13:26:50;11.20;99.90
6206;DHT22;3136;48.788;9.772;2022-09-17T13:37:55;12.30;99.90
6206;DHT22;3136;48.788;9.772;2022-09-17T13:40:25;12.20;99.90
6206;DHT22;3136;48.788;9.772;2022-09-17T13:43:17;12.10;99.90
6206;DHT22;3136;48.788;9.772;2022-09-17T13:48:28;11.40;69.00
6206;DHT22;3136;48.788;9.772;2022-09-17T13:50:54;11.00;43.60
6206;DHT22;3136;48.788;9.772;2022-09-17T13:53:23;10.70;93.00
6206;DHT22;3136;48.788;9.772;2022-09-17T13:55:56;10.60;73.10
6206;DHT22;3136;48.788;9.772;2022-09-17T13:58:33;10.50;99.90
6206;DHT22;3136;48.788;9.772;2022-09-17T14:01:11;10.30;99.90
6206;DHT22;3136;48.788;9.772;2022-09-17T14:13:56;10.70;99.90
6206;DHT22;3136;48.788;9.772;2022-09-17T14:21:54;11.70;88.50
6206;DHT22;3136;48.788;9.772;2022-09-17T14:33:14;11.70;28.40
6206;DHT22;3136;48.788;9.772;2022-09-17T14:35:51;11.90;41.00
6206;DHT22;3136;48.788;9.772;2022-09-17T14:39:16;11.90;25.10
6206;DHT22;3136;48.788;9.772;2022-09-17T14:41:26;11.80;17.30
6206;DHT22;3136;48.788;9.772;2022-09-17T14:46:24;11.60;23.40
6206;DHT22;3136;48.788;9.772;2022-09-17T14:48:52;11.50;11.60
6206;DHT22;3136;48.788;9.772;2022-09-17T14:54:06;11.40;24.00
6206;DHT22;3136;48.788;9.772;2022-09-17T14:56:47;11.40;35.60
6206;DHT22;3136;48.788;9.772;2022-09-17T14:59:33;11.60;68.40
6206;DHT22;3136;48.788;9.772;2022-09-17T15:02:00;11.80;14.30
6206;DHT22;3136;48.788;9.772;2022-09-17T15:04:27;11.80;15.10
6206;DHT22;3136;48.788;9.772;2022-09-17T15:07:05;10.30;30.20
6206;DHT22;3136;48.788;9.772;2022-09-17T15:09:31;11.80;25.50
6206;DHT22;3136;48.788;9.772;2022-09-17T15:11:59;11.80;19.30
6206;DHT22;3136;48.788;9.772;2022-09-17T15:14:29;11.70;38.70
6206;DHT22;3136;48.788;9.772;2022-09-17T15:16:57;11.80;38.70
6206;DHT22;3136;48.788;9.772;2022-09-17T15:21:58;11.90;13.10
6206;DHT22;3136;48.788;9.772;2022-09-17T15:24:38;11.90;20.40
6206;DHT22;3136;48.788;9.772;2022-09-17T15:27:38;11.90;25.60
6206;DHT22;3136;48.788;9.772;2022-09-17T15:30:25;12.00;23.40
6206;DHT22;3136;48.788;9.772;2022-09-17T15:33:00;11.90;16.70
6206;DHT22;3136;48.788;9.772;2022-09-17T15:38:23;11.70;24.70
6206;DHT22;3136;48.788;9.772;2022-09-17T15:40:49;11.50;25.40
6206;DHT22;3136;48.788;9.772;2022-09-17T15:43:33;11.40;36.40
6206;DHT22;3136;48.788;9.772;2022-09-17T15:48:45;11.40;66.40
6206;DHT22;3136;48.788;9.772;2022-09-17T15:51:28;11.50;90.50
6206;DHT22;3136;48.788;9.772;2022-09-17T15:53:57;11.40;99.90
6206;DHT22;3136;48.788;9.772;2022-09-17T15:56:34;11.40;99.90
6206;DHT22;3136;48.788;9.772;2022-09-17T15:59:29;11.40;95.30
6206;DHT22;3136;48.788;9.772;2022-09-17T16:01:57;11.30;99.90
6206;DHT22;3136;48.788;9.772;2022-09-17T16:04:29;11.20;96.40
6206;DHT22;3136;48.788;9.772;2022-09-17T16:12:11;11.10;99.90
6206;DHT22;3136;48.788;9.772;2022-09-17T16:14:37;11.00;99.90
6206;DHT22;3136;48.788;9.772;2022-09-17T16:17:32;10.90;99.90
6206;DHT22;3136;48.788;9.772;2022-09-17T16:20:21;10.90;99.90
6206;DHT22;3136;48.788;9.772;2022-09-17T16:22:51;10.80;99.90
6206;DHT22;3136;48.788;9.772;2022-09-17T16:25:19;10.80;99.90
6206;DHT22;3136;48.788;9.772;2022-09-17T16:27:51;10.80;99.90
6206;DHT22;3136;48.788;9.772;2022-09-17T16:30:21;10.70;1.00
6206;DHT22;3136;48.788;9.772;2022-09-17T16:32:47;10.80;1.00
6206;DHT22;3136;48.788;9.772;2022-09-17T16:35:18;10.90;1.00
6206;DHT22;3136;48.788;9.772;2022-09-17T16:37:49;11.00;1.00
6206;DHT22;3136;48.788;9.772;2022-09-17T16:40:14;10.90;1.00
6206;DHT22;3136;48.788;9.772;2022-09-17T16:42:40;11.10;1.00
6206;DHT22;3136;48.788;9.772;2022-09-17T16:45:06;10.80;99.90
6206;DHT22;3136;48.788;9.772;2022-09-17T16:47:34;10.70;99.90
6206;DHT22;3136;48.788;9.772;2022-09-17T16:50:02;10.60;99.90
6206;DHT22;3136;48.788;9.772;2022-09-17T16:52:29;10.50;1.00
6206;DHT22;3136;48.788;9.772;2022-09-17T16:54:54;10.40;1.00
6206;DHT22;3136;48.788;9.772;2022-09-17T16:57:20;10.30;1.00
6206;DHT22;3136;48.788;9.772;2022-09-17T16:59:45;10.20;99.90
6206;DHT22;3136;48.788;9.772;2022-09-17T17:02:11;10.20;99.90
6206;DHT22;3136;48.788;9.772;2022-09-17T17:04:36;10.10;1.00
6206;DHT22;3136;48.788;9.772;2022-09-17T17:07:02;10.10;1.00
6206;DHT22;3136;48.788;9.772;2022-09-17T17:09:27;10.00;99.90
6206;DHT22;3136;48.788;9.772;2022-09-17T17:11:53;10.00;1.00
6206;DHT22;3136;48.788;9.772;2022-09-17T17:14:18;10.00;1.00
6206;DHT22;3136;48.788;9.772;2022-09-17T17:16:45;9.90;1.00
6206;DHT22;3136;48.788;9.772;2022-09-17T17:19:10;9.90;1.00
6206;DHT22;3136;48.788;9.772;2022-09-17T17:21:36;9.80;61.30
6206;DHT22;3136;48.788;9.772;2022-09-17T17:24:01;9.80;99.90
6206;DHT22;3136;48.788;9.772;2022-09-17T17:26:27;9.70;1.00
6206;DHT22;3136;48.788;9.772;2022-09-17T17:28:53;9.70;99.90
6206;DHT22;3136;48.788;9.772;2022-09-17T17:31:18;9.60;99.90
6206;DHT22;3136;48.788;9.772;2022-09-17T17:33:44;9.60;99.90
6206;DHT22;3136;48.788;9.772;2022-09-17T17:36:10;9.50;1.00
6206;DHT22;3136;48.788;9.772;2022-09-17T17:38:36;9.60;99.90
6206;DHT22;3136;48.788;9.772;2022-09-17T17:41:13;9.60;1.00
6206;DHT22;3136;48.788;9.772;2022-09-17T17:43:40;9.60;1.00
6206;DHT22;3136;48.788;9.772;2022-09-17T17:46:07;9.60;1.00
6206;DHT22;3136;48.788;9.772;2022-09-17T17:48:34;9.60;1.00
6206;DHT22;3136;48.788;9.772;2022-09-17T17:51:03;9.60;1.00
6206;DHT22;3136;48.788;9.772;2022-09-17T17:53:29;9.60;99.90
6206;DHT22;3136;48.788;9.772;2022-09-17T17:55:58;9.70;99.90
6206;DHT22;3136;48.788;9.772;2022-09-17T17:58:24;9.70;99.90
6206;DHT22;3136;48.788;9.772;2022-09-17T18:00:50;9.80;1.00
6206;DHT22;3136;48.788;9.772;2022-09-17T18:03:15;9.70;99.90
6206;DHT22;3136;48.788;9.772;2022-09-17T18:05:41;9.40;99.90
6206;DHT22;3136;48.788;9.772;2022-09-17T18:08:07;9.30;1.00
6206;DHT22;3136;48.788;9.772;2022-09-17T18:10:32;9.20;99.90
6206;DHT22;3136;48.788;9.772;2022-09-17T18:12:58;9.10;99.90
6206;DHT22;3136;48.788;9.772;2022-09-17T18:15:23;9.00;1.00
6206;DHT22;3136;48.788;9.772;2022-09-17T18:17:49;9.00;90.60
6206;DHT22;3136;48.788;9.772;2022-09-17T18:20:17;9.00;99.90
6206;DHT22;3136;48.788;9.772;2022-09-17T18:22:43;8.90;99.90
6206;DHT22;3136;48.788;9.772;2022-09-17T18:25:08;8.90;99.90
6206;DHT22;3136;48.788;9.772;2022-09-17T18:27:34;8.90;1.00
6206;DHT22;3136;48.788;9.772;2022-09-17T18:29:59;8.90;1.00
6206;DHT22;3136;48.788;9.772;2022-09-17T18:32:25;8.90;1.00
6206;DHT22;3136;48.788;9.772;2022-09-17T18:34:50;8.90;1.00
6206;DHT22;3136;48.788;9.772;2022-09-17T18:37:16;9.00;1.00
6206;DHT22;3136;48.788;9.772;2022-09-17T18:39:42;9.00;1.00
6206;DHT22;3136;48.788;9.772;2022-09-17T18:42:08;9.00;1.00
6206;DHT22;3136;48.788;9.772;2022-09-17T18:44:33;8.90;1.00
6206;DHT22;3136;48.788;9.772;2022-09-17T18:46:59;8.90;1.00
6206;DHT22;3136;48.788;9.772;2022-09-17T18:49:24;8.90;1.00
6206;DHT22;3136;48.788;9.772;2022-09-17T18:51:50;8.90;1.00
6206;DHT22;3136;48.788;9.772;2022-09-17T18:54:15;8.90;1.00
6206;DHT22;3136;48.788;9.772;2022-09-17T18:56:41;8.90;1.00
6206;DHT22;3136;48.788;9.772;2022-09-17T18:59:07;8.90;1.00
6206;DHT22;3136;48.788;9.772;2022-09-17T19:01:32;9.00;1.00
6206;DHT22;3136;48.788;9.772;2022-09-17T19:03:58;9.00;1.00
6206;DHT22;3136;48.788;9.772;2022-09-17T19:06:25;9.10;1.00
6206;DHT22;3136;48.788;9.772;2022-09-17T19:08:51;9.10;1.00
6206;DHT22;3136;48.788;9.772;2022-09-17T19:11:18;9.10;1.00
6206;DHT22;3136;48.788;9.772;2022-09-17T19:13:45;9.10;1.00
6206;DHT22;3136;48.788;9.772;2022-09-17T19:16:12;9.10;1.00
6206;DHT22;3136;48.788;9.772;2022-09-17T19:18:39;9.20;1.00
6206;DHT22;3136;48.788;9.772;2022-09-17T19:21:07;9.20;1.00
6206;DHT22;3136;48.788;9.772;2022-09-17T19:23:33;9.20;1.00
6206;DHT22;3136;48.788;9.772;2022-09-17T19:26:06;9.30;1.00
6206;DHT22;3136;48.788;9.772;2022-09-17T19:28:32;9.30;1.00
6206;DHT22;3136;48.788;9.772;2022-09-17T19:30:58;9.30;1.00
6206;DHT22;3136;48.788;9.772;2022-09-17T19:33:23;9.30;1.00
6206;DHT22;3136;48.788;9.772;2022-09-17T19:35:49;9.30;1.00
6206;DHT22;3136;48.788;9.772;2022-09-17T19:38:15;9.30;1.00
6206;DHT22;3136;48.788;9.772;2022-09-17T19:40:41;9.30;1.00
6206;DHT22;3136;48.788;9.772;2022-09-17T19:43:08;9.40;1.00
6206;DHT22;3136;48.788;9.772;2022-09-17T19:45:34;10.50;1.00
6206;DHT22;3136;48.788;9.772;2022-09-17T19:47:59;9.40;1.00
6206;DHT22;3136;48.788;9.772;2022-09-17T19:50:27;9.40;1.00
6206;DHT22;3136;48.788;9.772;2022-09-17T19:52:53;9.40;1.00